Terminal Aerodrome Forecast
Issued by NWS

Home | Current Version | Previous Version | Graphics & Text | Print | Product List | Glossary On
Versions: 1 2 3 4 5 6 7 8 9 10 11 12 13 14 15 16 17
000
FTUS45 KGGW 052300
TAFSDY
TAF
KSDY 052320Z 0600/0624 35013KT P6SM SCT060 BKN080
     FM060600 32009KT P6SM BKN070
     FM061200 VRB05KT 5SM HZ SCT070
     FM061800 33010KT 5SM HZ BKN080
      AMD LTD TO CLD VIS AND WIND=

USA.gov is the U.S. government's official web portal to all federal, state and local government web resources and services.